createdAt,value
2023-02-03T00:04:40.710Z,4.00
2023-02-03T00:09:42.722Z,3.87
2023-02-03T00:14:45.927Z,3.84
2023-02-03T00:19:48.210Z,3.74
2023-02-03T00:24:50.132Z,3.70
2023-02-03T00:29:52.381Z,3.65
2023-02-03T00:34:59.568Z,3.64
2023-02-03T00:40:01.473Z,3.60
2023-02-03T00:45:03.699Z,3.54
2023-02-03T00:50:06.835Z,3.45
2023-02-03T00:55:10.136Z,3.36
2023-02-03T01:00:12.880Z,3.32
2023-02-03T01:05:15.005Z,3.32
2023-02-03T01:10:17.460Z,3.29
2023-02-03T01:15:19.499Z,3.27
2023-02-03T01:20:21.717Z,3.23
2023-02-03T01:25:23.733Z,3.19
2023-02-03T01:30:26.095Z,3.21
2023-02-03T01:35:28.296Z,3.17
2023-02-03T01:40:30.194Z,3.13
2023-02-03T01:45:32.059Z,3.01
2023-02-03T01:50:36.738Z,2.99
2023-02-03T01:55:43.432Z,3.04
2023-02-03T02:00:45.900Z,3.07
2023-02-03T02:06:00.968Z,3.00
2023-02-03T02:11:03.724Z,3.01
2023-02-03T02:16:29.667Z,2.98
2023-02-03T02:21:42.790Z,3.01
2023-02-03T02:26:55.260Z,2.88
2023-02-03T02:32:00.819Z,2.88
2023-02-03T02:37:13.691Z,2.75
2023-02-03T02:42:27.312Z,2.74
2023-02-03T02:47:30.383Z,2.69
2023-02-03T02:52:37.614Z,2.64
2023-02-03T02:57:39.976Z,2.63
2023-02-03T03:02:42.107Z,2.49
2023-02-03T03:07:49.880Z,2.47
2023-02-03T03:12:55.687Z,2.60
2023-02-03T03:18:15.995Z,2.50
2023-02-03T03:23:24.989Z,2.42
2023-02-03T03:28:35.133Z,2.35
2023-02-03T03:33:37.357Z,2.29
2023-02-03T03:38:46.482Z,2.18
2023-02-03T03:43:48.844Z,2.14
2023-02-03T03:48:57.157Z,2.14
2023-02-03T03:54:02.382Z,2.13
2023-02-03T03:59:05.341Z,2.12
2023-02-03T04:04:10.422Z,2.00
2023-02-03T04:09:12.404Z,1.91
2023-02-03T04:14:14.293Z,1.94
2023-02-03T04:19:16.211Z,1.92
2023-02-03T04:24:18.342Z,1.91
2023-02-03T04:29:20.181Z,1.74
2023-02-03T04:34:22.176Z,1.65
2023-02-03T04:39:24.154Z,1.34
2023-02-03T04:44:26.007Z,1.34
2023-02-03T04:49:27.898Z,1.23
2023-02-03T04:54:29.916Z,1.18
2023-02-03T04:59:31.896Z,1.14
2023-02-03T05:04:34.137Z,1.04
2023-02-03T05:09:36.095Z,1.00
2023-02-03T05:14:37.999Z,0.82
2023-02-03T05:19:39.945Z,0.99
2023-02-03T05:24:41.837Z,1.02
2023-02-03T05:29:43.722Z,1.04
2023-02-03T05:34:45.752Z,1.12
2023-02-03T05:39:47.735Z,1.20
2023-02-03T05:44:49.662Z,1.24
2023-02-03T05:49:51.668Z,1.27
2023-02-03T05:54:53.559Z,1.29
2023-02-03T05:59:55.456Z,1.33
2023-02-03T06:04:57.437Z,1.41
2023-02-03T06:09:59.387Z,1.44
2023-02-03T06:15:01.260Z,1.46
2023-02-03T06:20:08.064Z,1.50
2023-02-03T06:25:13.181Z,1.44
2023-02-03T06:30:15.403Z,1.35
2023-02-03T06:35:18.168Z,1.25
2023-02-03T06:40:20.458Z,1.16
2023-02-03T06:45:23.055Z,1.08
2023-02-03T06:50:25.408Z,1.09
2023-02-03T06:55:27.500Z,0.91
2023-02-03T07:00:29.571Z,1.00
2023-02-03T07:05:31.769Z,0.95
2023-02-03T07:10:33.781Z,0.77
2023-02-03T07:15:35.977Z,0.87
2023-02-03T07:20:37.970Z,0.79
2023-02-03T07:25:39.869Z,0.73
2023-02-03T07:30:41.864Z,0.80
2023-02-03T07:35:43.909Z,0.76
2023-02-03T07:40:46.222Z,0.92
2023-02-03T07:45:48.197Z,0.96
2023-02-03T07:50:50.939Z,1.00
2023-02-03T07:55:52.873Z,1.06
2023-02-03T08:00:54.742Z,1.04
2023-02-03T08:05:57.215Z,1.07
2023-02-03T08:10:59.306Z,1.07
2023-02-03T08:16:01.270Z,1.04
2023-02-03T08:21:04.955Z,1.10
2023-02-03T08:26:06.922Z,1.13
2023-02-03T08:31:12.714Z,1.36
2023-02-03T08:36:14.865Z,1.46
2023-02-03T08:41:18.322Z,1.56
2023-02-03T08:46:20.425Z,1.65
2023-02-03T08:51:22.695Z,1.69
2023-02-03T08:56:26.518Z,1.91
2023-02-03T09:01:29.096Z,2.08
2023-02-03T09:06:42.904Z,2.22
2023-02-03T09:11:45.800Z,2.44
2023-02-03T09:16:47.981Z,2.75
2023-02-03T09:21:50.881Z,2.98
2023-02-03T09:26:53.585Z,3.49
2023-02-03T09:31:55.884Z,4.11
2023-02-03T09:36:58.027Z,5.85
2023-02-03T09:42:24.329Z,7.46
2023-02-03T09:47:32.963Z,8.55
2023-02-03T09:52:39.534Z,9.34
2023-02-03T09:57:45.131Z,9.98
2023-02-03T10:03:15.957Z,10.41
2023-02-03T10:08:56.385Z,10.88
2023-02-03T10:14:18.931Z,11.14
2023-02-03T10:19:27.716Z,11.55
2023-02-03T10:24:36.269Z,12.01
2023-02-03T10:29:40.085Z,12.39
2023-02-03T10:34:45.421Z,12.55
2023-02-03T10:39:52.196Z,12.88
2023-02-03T10:44:59.239Z,13.42
2023-02-03T10:50:33.828Z,13.93
2023-02-03T10:55:35.987Z,13.88
2023-02-03T11:00:38.155Z,14.54
2023-02-03T11:05:41.486Z,14.61
2023-02-03T11:10:45.222Z,14.95
2023-02-03T11:15:59.589Z,14.68
2023-02-03T11:21:07.577Z,13.50
2023-02-03T11:26:11.963Z,12.66
2023-02-03T11:31:25.997Z,12.20
2023-02-03T11:36:29.682Z,11.75
2023-02-03T11:41:38.377Z,11.77
2023-02-03T11:46:40.859Z,11.68
2023-02-03T11:51:48.336Z,11.52
2023-02-03T11:57:02.142Z,11.52
2023-02-03T12:02:36.537Z,11.40
2023-02-03T12:07:59.676Z,11.18
2023-02-03T12:13:29.863Z,11.11
2023-02-03T12:19:04.625Z,11.41
2023-02-03T12:24:33.955Z,11.53
2023-02-03T12:29:43.485Z,11.64
2023-02-03T12:34:54.549Z,11.74
2023-02-03T12:40:00.351Z,11.77
2023-02-03T12:45:12.217Z,11.87
2023-02-03T12:50:22.607Z,11.75
2023-02-03T12:55:33.275Z,11.52
2023-02-03T13:00:39.170Z,11.74
2023-02-03T13:05:47.567Z,11.74
2023-02-03T13:11:21.637Z,11.80
2023-02-03T13:16:34.548Z,11.76
2023-02-03T13:21:36.771Z,11.86
2023-02-03T13:27:00.920Z,11.91
2023-02-03T13:32:56.449Z,11.88
2023-02-03T13:38:22.473Z,12.12
2023-02-03T13:43:38.579Z,12.38
2023-02-03T13:48:44.892Z,12.43
2023-02-03T13:53:47.890Z,12.63
2023-02-03T13:59:09.775Z,12.72
2023-02-03T14:04:23.919Z,12.77
2023-02-03T14:09:31.788Z,12.84
2023-02-03T14:14:34.129Z,13.30
2023-02-03T14:19:51.133Z,13.58
2023-02-03T14:24:54.548Z,13.63
2023-02-03T14:30:12.030Z,13.56
2023-02-03T14:35:18.875Z,13.46
2023-02-03T14:40:35.897Z,13.36
2023-02-03T14:46:09.588Z,13.65
2023-02-03T14:51:20.278Z,13.43
2023-02-03T14:57:02.412Z,13.45
2023-02-03T15:02:08.012Z,13.46
2023-02-03T15:07:10.204Z,13.56
2023-02-03T15:12:20.137Z,13.70
2023-02-03T15:17:25.386Z,13.58
2023-02-03T15:22:29.597Z,13.42
2023-02-03T15:27:32.980Z,13.39
2023-02-03T15:32:39.110Z,13.33
2023-02-03T15:37:51.296Z,13.30
2023-02-03T15:43:08.317Z,13.25
2023-02-03T15:48:21.901Z,13.24
2023-02-03T15:53:41.157Z,13.10
2023-02-03T15:58:49.620Z,13.40
2023-02-03T16:03:53.264Z,13.26
2023-02-03T16:08:56.307Z,13.10
2023-02-03T16:14:00.330Z,12.82
2023-02-03T16:19:05.238Z,12.86
2023-02-03T16:24:29.866Z,12.94
2023-02-03T16:29:54.496Z,12.70
2023-02-03T16:35:14.873Z,12.45
2023-02-03T16:40:40.589Z,12.40
2023-02-03T16:46:02.679Z,12.25
2023-02-03T16:51:10.812Z,11.92
2023-02-03T16:56:13.834Z,11.86
2023-02-03T17:01:16.329Z,11.58
2023-02-03T17:06:18.426Z,11.53
2023-02-03T17:11:22.372Z,11.30
2023-02-03T17:16:26.840Z,11.08
2023-02-03T17:21:29.764Z,10.99
2023-02-03T17:26:31.869Z,10.83
2023-02-03T17:31:33.911Z,10.64
2023-02-03T17:36:36.040Z,10.50
2023-02-03T17:57:39.186Z,9.98
2023-02-03T18:02:43.109Z,9.84
2023-02-03T18:07:45.241Z,9.68
2023-02-03T18:12:47.291Z,9.58
2023-02-03T18:17:49.282Z,9.52
2023-02-03T18:22:51.222Z,9.43
2023-02-03T18:27:53.245Z,9.19
2023-02-03T18:32:55.664Z,9.21
2023-02-03T18:37:57.715Z,9.21
2023-02-03T18:42:59.700Z,9.11
2023-02-03T18:48:01.693Z,9.07
2023-02-03T18:53:03.663Z,9.02
2023-02-03T18:58:05.771Z,9.00
2023-02-03T19:03:09.560Z,8.79
2023-02-03T19:08:11.518Z,8.74
2023-02-03T19:13:13.586Z,8.74
2023-02-03T19:18:16.365Z,8.68
2023-02-03T19:23:18.339Z,8.57
2023-02-03T19:28:30.624Z,8.39
2023-02-03T19:33:33.368Z,8.43
2023-02-03T19:38:35.795Z,8.26
2023-02-03T19:43:38.012Z,8.21
2023-02-03T19:48:40.696Z,8.24
2023-02-03T19:53:42.878Z,8.07
2023-02-03T19:58:50.826Z,7.91
2023-02-03T20:03:53.008Z,7.96
2023-02-03T20:09:01.724Z,7.85
2023-02-03T20:14:04.398Z,7.94
2023-02-03T20:19:07.107Z,7.86
2023-02-03T20:24:09.142Z,7.79
2023-02-03T20:29:11.217Z,7.74
2023-02-03T20:34:13.483Z,7.66
2023-02-03T20:39:20.082Z,7.59
2023-02-03T20:44:22.251Z,7.50
2023-02-03T20:49:24.176Z,7.44
2023-02-03T20:54:26.214Z,7.23
2023-02-03T20:59:28.363Z,7.06
2023-02-03T21:04:48.927Z,6.79
2023-02-03T21:09:50.918Z,6.87
2023-02-03T21:14:55.156Z,6.81
2023-02-03T21:19:57.351Z,6.79
2023-02-03T21:25:03.500Z,6.80
2023-02-03T21:30:23.641Z,6.73
2023-02-03T21:35:43.564Z,6.60
2023-02-03T21:40:45.573Z,6.46
2023-02-03T21:45:47.705Z,6.40
2023-02-03T21:50:49.872Z,6.28
2023-02-03T21:55:52.199Z,6.16
2023-02-03T22:00:55.947Z,6.22
2023-02-03T22:06:04.995Z,6.08
2023-02-03T22:11:07.082Z,6.06
2023-02-03T22:16:09.494Z,6.08
2023-02-03T22:21:11.993Z,6.04
2023-02-03T22:26:17.835Z,5.96
2023-02-03T22:31:20.608Z,5.80
2023-02-03T22:36:23.713Z,5.65
2023-02-03T22:41:25.635Z,5.63
2023-02-03T22:46:29.387Z,5.66
2023-02-03T22:51:31.412Z,5.52
2023-02-03T22:56:33.825Z,5.54
2023-02-03T23:01:35.939Z,5.38
2023-02-03T23:06:38.005Z,5.43
2023-02-03T23:11:40.063Z,5.33
2023-02-03T23:16:42.174Z,5.36
2023-02-03T23:21:44.395Z,5.29
2023-02-03T23:26:46.706Z,5.11
2023-02-03T23:31:48.948Z,5.15
2023-02-03T23:36:51.123Z,5.17
2023-02-03T23:41:53.093Z,5.06
2023-02-03T23:46:55.048Z,4.88
2023-02-03T23:51:57.452Z,4.97
2023-02-03T23:56:59.681Z,4.89
